createdAt,value
2023-04-25T00:01:41.184Z,18.13
2023-04-25T00:04:08.044Z,19.45
2023-04-25T00:06:37.716Z,21.52
2023-04-25T00:09:08.293Z,19.48
2023-04-25T00:11:34.907Z,23.88
2023-04-25T00:14:03.046Z,19.52
2023-04-25T00:16:31.665Z,17.48
2023-04-25T00:18:59.633Z,19.52
2023-04-25T00:21:26.489Z,23.15
2023-04-25T00:23:56.649Z,16.40
2023-04-25T00:26:23.057Z,16.48
2023-04-25T00:28:49.632Z,17.83
2023-04-25T00:31:16.092Z,25.50
2023-04-25T00:33:42.667Z,19.00
2023-04-25T00:36:09.615Z,16.30
2023-04-25T00:38:36.050Z,16.95
2023-04-25T00:41:02.435Z,14.45
2023-04-25T00:43:29.084Z,17.25
2023-04-25T00:45:56.752Z,18.63
2023-04-25T00:48:23.782Z,19.48
2023-04-25T00:50:55.370Z,13.60
2023-04-25T00:53:26.412Z,12.60
2023-04-25T00:55:53.419Z,16.45
2023-04-25T00:58:21.056Z,14.60
2023-04-25T01:00:49.138Z,15.63
2023-04-25T01:03:21.261Z,14.05
2023-04-25T01:05:48.944Z,13.20
2023-04-25T01:08:15.489Z,18.30
2023-04-25T01:10:41.977Z,14.70
2023-04-25T01:13:08.486Z,16.25
2023-04-25T01:15:36.667Z,19.90
2023-04-25T01:18:04.695Z,12.63
2023-04-25T01:20:33.283Z,9.20
2023-04-25T01:22:59.774Z,15.38
2023-04-25T01:25:26.220Z,12.38
2023-04-25T01:27:52.774Z,13.20
2023-04-25T01:30:19.353Z,16.60
2023-04-25T01:32:45.894Z,14.13
2023-04-25T01:35:13.122Z,20.02
2023-04-25T01:37:43.692Z,14.05
2023-04-25T01:40:11.512Z,16.30
2023-04-25T01:42:39.341Z,14.85
2023-04-25T01:45:06.664Z,16.17
2023-04-25T01:47:33.305Z,13.77
2023-04-25T01:49:59.716Z,22.83
2023-04-25T01:52:26.128Z,12.13
2023-04-25T01:54:54.346Z,14.60
2023-04-25T01:57:21.024Z,13.68
2023-04-25T01:59:47.461Z,16.67
2023-04-25T02:02:13.922Z,20.90
2023-04-25T02:04:40.593Z,13.85
2023-04-25T02:07:07.097Z,14.77
2023-04-25T02:09:33.475Z,16.13
2023-04-25T02:11:59.884Z,12.93
2023-04-25T02:14:26.305Z,14.32
2023-04-25T02:16:53.441Z,13.43
2023-04-25T02:19:19.880Z,11.02
2023-04-25T02:21:46.541Z,12.15
2023-04-25T02:24:12.932Z,13.80
2023-04-25T02:26:39.311Z,13.35
2023-04-25T02:29:05.769Z,12.23
2023-04-25T02:31:32.359Z,16.80
2023-04-25T02:33:58.893Z,17.52
2023-04-25T02:36:25.347Z,15.85
2023-04-25T02:38:51.715Z,11.18
2023-04-25T02:41:18.096Z,15.38
2023-04-25T02:43:44.459Z,17.67
2023-04-25T02:46:10.942Z,11.50
2023-04-25T02:48:37.306Z,13.45
2023-04-25T02:51:03.772Z,13.77
2023-04-25T02:53:30.198Z,15.02
2023-04-25T02:55:59.172Z,18.52
2023-04-25T02:58:25.808Z,13.98
2023-04-25T03:00:52.286Z,11.75
2023-04-25T03:03:19.191Z,18.65
2023-04-25T03:05:47.697Z,18.17
2023-04-25T03:08:14.093Z,16.60
2023-04-25T03:10:40.657Z,16.10
2023-04-25T03:13:07.026Z,15.20
2023-04-25T03:15:33.433Z,14.45
2023-04-25T03:17:59.846Z,21.40
2023-04-25T03:20:26.270Z,15.57
2023-04-25T03:22:52.655Z,23.17
2023-04-25T03:25:19.106Z,18.77
2023-04-25T03:27:45.536Z,21.15
2023-04-25T03:30:12.122Z,21.85
2023-04-25T03:32:38.629Z,19.58
2023-04-25T03:35:06.263Z,19.40
2023-04-25T03:37:32.638Z,19.50
2023-04-25T03:39:59.010Z,21.17
2023-04-25T03:42:25.512Z,20.20
2023-04-25T03:44:52.830Z,19.52
2023-04-25T03:47:19.215Z,22.00
2023-04-25T03:49:45.687Z,15.07
2023-04-25T03:52:12.230Z,22.05
2023-04-25T03:54:38.607Z,17.60
2023-04-25T03:57:05.011Z,19.02
2023-04-25T03:59:31.385Z,16.42
2023-04-25T04:01:57.853Z,22.77
2023-04-25T04:04:24.350Z,17.42
2023-04-25T04:06:51.701Z,18.00
2023-04-25T04:09:18.772Z,24.42
2023-04-25T04:11:45.260Z,17.30
2023-04-25T04:14:11.868Z,25.35
2023-04-25T04:16:38.618Z,12.35
2023-04-25T04:19:05.454Z,15.38
2023-04-25T04:21:32.937Z,17.88
2023-04-25T04:24:01.089Z,22.40
2023-04-25T04:26:27.651Z,15.98
2023-04-25T04:28:55.243Z,15.35
2023-04-25T04:31:22.853Z,17.30
2023-04-25T04:33:49.509Z,13.82
2023-04-25T04:36:16.686Z,16.90
2023-04-25T04:38:43.272Z,13.82
2023-04-25T04:41:09.769Z,12.90
2023-04-25T04:43:36.333Z,13.88
2023-04-25T04:46:04.643Z,12.63
2023-04-25T04:48:35.178Z,14.68
2023-04-25T04:51:02.180Z,9.65
2023-04-25T04:53:29.333Z,9.88
2023-04-25T04:55:55.841Z,13.10
2023-04-25T04:58:22.414Z,12.55
2023-04-25T05:00:48.934Z,11.13
2023-04-25T05:03:15.495Z,13.20
2023-04-25T05:05:42.467Z,11.60
2023-04-25T05:08:08.890Z,10.00
2023-04-25T05:10:35.293Z,14.88
2023-04-25T05:13:01.700Z,8.82
2023-04-25T05:15:28.129Z,9.73
2023-04-25T05:17:54.599Z,10.25
2023-04-25T05:20:21.139Z,10.15
2023-04-25T05:22:47.579Z,12.18
2023-04-25T05:25:14.020Z,11.35
2023-04-25T05:27:40.418Z,10.25
2023-04-25T05:30:07.833Z,12.98
2023-04-25T05:32:34.359Z,14.00
2023-04-25T05:35:00.886Z,15.05
2023-04-25T05:37:27.462Z,13.88
2023-04-25T05:39:54.243Z,8.75
2023-04-25T05:42:20.619Z,18.50
2023-04-25T05:44:47.015Z,17.55
2023-04-25T05:47:13.469Z,14.57
2023-04-25T05:49:39.856Z,16.55
2023-04-25T05:52:06.256Z,18.02
2023-04-25T05:54:32.660Z,15.13
2023-04-25T05:56:59.047Z,20.33
2023-04-25T05:59:25.464Z,17.33
2023-04-25T06:01:52.628Z,21.33
2023-04-25T06:04:19.172Z,14.40
2023-04-25T06:06:46.524Z,19.50
2023-04-25T06:09:14.393Z,17.42
2023-04-25T06:11:40.948Z,18.77
2023-04-25T06:14:07.784Z,15.55
2023-04-25T06:16:34.350Z,13.95
2023-04-25T06:19:00.781Z,14.35
2023-04-25T06:21:28.307Z,11.93
2023-04-25T06:23:54.782Z,21.33
2023-04-25T06:26:21.190Z,16.95
2023-04-25T06:28:47.627Z,21.40
2023-04-25T06:31:14.057Z,17.75
2023-04-25T06:33:41.602Z,15.20
2023-04-25T06:36:08.128Z,14.60
2023-04-25T06:38:35.720Z,16.23
2023-04-25T06:41:02.151Z,23.30
2023-04-25T06:43:28.557Z,17.45
2023-04-25T06:45:54.960Z,22.27
2023-04-25T06:48:21.327Z,15.32
2023-04-25T06:50:47.734Z,18.83
2023-04-25T06:53:14.140Z,18.67
2023-04-25T06:55:40.521Z,14.50
2023-04-25T06:58:08.039Z,17.85
2023-04-25T07:00:34.572Z,21.13
2023-04-25T07:03:01.128Z,18.10
2023-04-25T07:05:27.865Z,15.70
2023-04-25T07:07:54.292Z,20.17
2023-04-25T07:10:22.250Z,17.73
2023-04-25T07:12:48.844Z,10.98
2023-04-25T07:15:15.485Z,18.45
2023-04-25T07:17:41.915Z,18.08
2023-04-25T07:20:10.079Z,12.73
2023-04-25T07:22:36.455Z,11.75
2023-04-25T07:25:03.011Z,19.73
2023-04-25T07:27:29.503Z,20.98
2023-04-25T07:29:55.946Z,11.32
2023-04-25T07:32:22.401Z,13.45
2023-04-25T07:34:48.833Z,18.13
2023-04-25T07:37:15.395Z,14.35
2023-04-25T07:39:42.852Z,15.52
2023-04-25T07:42:09.269Z,12.75
2023-04-25T07:44:39.586Z,23.35
2023-04-25T07:47:07.997Z,18.80
2023-04-25T07:49:37.942Z,17.35
2023-04-25T07:52:06.394Z,17.23
2023-04-25T07:54:33.334Z,15.68
2023-04-25T07:56:59.812Z,16.27
2023-04-25T07:59:28.005Z,17.20
2023-04-25T08:01:56.069Z,18.95
2023-04-25T08:04:22.622Z,15.73
2023-04-25T08:06:49.305Z,12.30
2023-04-25T08:09:16.519Z,13.82
2023-04-25T08:11:42.995Z,23.00
2023-04-25T08:14:09.374Z,12.85
2023-04-25T08:16:35.996Z,10.20
2023-04-25T08:19:03.806Z,16.65
2023-04-25T08:21:30.351Z,11.07
2023-04-25T08:23:57.473Z,12.23
2023-04-25T08:26:23.850Z,13.30
2023-04-25T08:28:50.570Z,12.27
2023-04-25T08:31:17.541Z,9.98
2023-04-25T08:33:44.532Z,14.07
2023-04-25T08:36:11.113Z,16.83
2023-04-25T08:38:37.694Z,16.42
2023-04-25T08:41:04.488Z,9.80
2023-04-25T08:43:34.197Z,16.70
2023-04-25T08:46:01.421Z,10.70
2023-04-25T08:48:29.295Z,9.98
2023-04-25T08:50:57.131Z,11.68
2023-04-25T08:53:28.429Z,9.00
2023-04-25T08:55:56.581Z,5.90
2023-04-25T08:58:23.779Z,11.10
2023-04-25T09:00:50.910Z,9.63
2023-04-25T09:03:18.448Z,13.70
2023-04-25T09:05:45.002Z,12.32
2023-04-25T09:08:11.507Z,8.95
2023-04-25T09:10:38.238Z,11.93
2023-04-25T09:13:09.810Z,10.18
2023-04-25T09:15:52.969Z,7.60
2023-04-25T09:18:31.092Z,11.02
2023-04-25T09:21:13.045Z,11.27
2023-04-25T09:23:48.681Z,8.13
2023-04-25T09:26:17.869Z,9.88
2023-04-25T09:28:44.345Z,9.05
2023-04-25T09:31:12.107Z,12.70
2023-04-25T09:33:38.798Z,9.32
2023-04-25T09:36:09.831Z,7.65
2023-04-25T09:38:46.978Z,13.93
2023-04-25T09:41:13.701Z,9.25
2023-04-25T09:43:40.607Z,10.63
2023-04-25T09:46:12.017Z,14.63
2023-04-25T09:48:38.657Z,12.70
2023-04-25T09:51:13.457Z,10.43
2023-04-25T09:53:44.472Z,9.98
2023-04-25T09:56:12.173Z,8.15
2023-04-25T09:58:40.870Z,9.52
2023-04-25T10:01:09.806Z,8.07
2023-04-25T10:03:38.164Z,9.70
2023-04-25T10:06:08.647Z,4.13
2023-04-25T10:08:39.046Z,13.20
2023-04-25T10:11:07.841Z,9.98
2023-04-25T10:13:35.385Z,13.23
2023-04-25T10:16:03.509Z,6.72
2023-04-25T10:18:30.805Z,8.02
2023-04-25T10:20:58.906Z,8.15
2023-04-25T10:23:25.985Z,5.00
2023-04-25T10:25:53.020Z,6.20
2023-04-25T10:28:20.675Z,10.18
2023-04-25T10:31:13.492Z,8.82
2023-04-25T10:33:42.994Z,6.75
2023-04-25T10:36:14.026Z,9.13
2023-04-25T10:38:41.184Z,6.38
2023-04-25T10:41:09.945Z,9.50
2023-04-25T10:43:39.262Z,5.38
2023-04-25T10:46:24.589Z,6.47
2023-04-25T10:48:56.583Z,6.55
2023-04-25T10:51:51.010Z,8.43
2023-04-25T10:54:21.053Z,9.80
2023-04-25T10:56:50.016Z,9.75
2023-04-25T10:59:18.263Z,7.43
2023-04-25T11:01:49.995Z,8.52
2023-04-25T11:04:21.329Z,6.82
2023-04-25T11:06:55.855Z,9.63
2023-04-25T11:09:27.740Z,10.43
2023-04-25T11:11:59.134Z,8.50
2023-04-25T11:14:26.092Z,8.07
2023-04-25T11:17:00.729Z,5.40
2023-04-25T11:19:28.319Z,10.43
2023-04-25T11:21:58.826Z,11.77
2023-04-25T11:24:28.837Z,11.77
2023-04-25T11:26:55.449Z,13.15
2023-04-25T11:29:27.846Z,3.38
2023-04-25T11:31:58.722Z,3.83
2023-04-25T11:34:26.213Z,3.55
2023-04-25T11:36:53.683Z,6.43
2023-04-25T11:39:20.623Z,5.18
2023-04-25T11:41:47.613Z,2.45
2023-04-25T11:44:17.138Z,4.50
2023-04-25T11:46:44.126Z,1.98
2023-04-25T11:49:10.633Z,5.35
2023-04-25T11:51:41.514Z,4.10
2023-04-25T11:54:08.150Z,2.35
2023-04-25T11:56:34.586Z,3.42
2023-04-25T11:59:02.611Z,2.30
2023-04-25T12:01:35.555Z,6.90
2023-04-25T12:04:22.432Z,5.85
2023-04-25T12:06:51.595Z,2.17
2023-04-25T12:09:22.892Z,3.72
2023-04-25T12:11:53.484Z,5.35
2023-04-25T12:14:30.252Z,3.10
2023-04-25T12:16:58.872Z,3.63
2023-04-25T12:19:25.915Z,2.05
2023-04-25T12:24:26.722Z,2.00
2023-04-25T12:27:04.992Z,3.20
2023-04-25T12:29:42.054Z,3.38
2023-04-25T12:32:15.485Z,5.15
2023-04-25T12:34:41.857Z,3.20
2023-04-25T12:37:08.402Z,6.18
2023-04-25T12:39:34.854Z,1.20
2023-04-25T12:42:01.890Z,3.00
2023-04-25T12:44:28.272Z,2.58
2023-04-25T12:46:55.523Z,5.70
2023-04-25T12:49:22.033Z,3.55
2023-04-25T12:51:48.435Z,1.55
2023-04-25T12:54:15.367Z,1.83
2023-04-25T12:56:42.125Z,2.55
2023-04-25T12:59:08.622Z,5.28
2023-04-25T13:01:36.539Z,3.38
2023-04-25T13:04:03.369Z,3.90
2023-04-25T13:06:31.318Z,4.97
2023-04-25T13:08:57.724Z,4.85
2023-04-25T13:11:24.125Z,3.65
2023-04-25T13:13:50.812Z,2.90
2023-04-25T13:16:17.539Z,3.63
2023-04-25T13:18:43.979Z,4.63
2023-04-25T13:21:11.839Z,2.67
2023-04-25T13:23:38.216Z,1.77
2023-04-25T13:26:04.757Z,3.08
2023-04-25T13:28:31.358Z,3.72
2023-04-25T13:30:57.799Z,4.45
2023-04-25T13:33:24.196Z,2.38
2023-04-25T13:35:58.065Z,2.13
2023-04-25T13:38:26.209Z,1.30
2023-04-25T13:40:53.136Z,3.70
2023-04-25T13:43:23.575Z,2.90
2023-04-25T13:45:50.857Z,2.58
2023-04-25T13:48:17.370Z,4.97
2023-04-25T13:50:43.787Z,4.80
2023-04-25T13:53:10.325Z,1.70
2023-04-25T13:55:37.832Z,4.78
2023-04-25T13:58:08.464Z,1.95
2023-04-25T14:00:37.823Z,3.80
2023-04-25T14:03:07.970Z,1.45
2023-04-25T14:05:38.797Z,2.67
2023-04-25T14:08:09.673Z,7.35
2023-04-25T14:10:36.538Z,1.27
2023-04-25T14:13:04.094Z,7.38
2023-04-25T14:15:32.456Z,5.60
2023-04-25T14:17:59.120Z,2.78
2023-04-25T14:20:25.584Z,3.53
2023-04-25T14:22:52.974Z,2.63
2023-04-25T14:25:19.417Z,2.72
2023-04-25T14:27:50.447Z,3.85
2023-04-25T14:30:18.636Z,2.13
2023-04-25T14:32:45.909Z,1.60
2023-04-25T14:35:12.650Z,4.25
2023-04-25T14:37:39.127Z,1.95
2023-04-25T14:40:06.131Z,2.63
2023-04-25T14:42:33.864Z,3.40
2023-04-25T14:45:00.245Z,4.60
2023-04-25T14:47:26.710Z,4.22
2023-04-25T14:49:55.044Z,2.45
2023-04-25T14:52:21.961Z,3.53
2023-04-25T14:54:48.387Z,4.78
2023-04-25T14:57:15.261Z,6.50
2023-04-25T14:59:42.051Z,6.95
2023-04-25T15:02:08.484Z,4.78
2023-04-25T15:04:35.048Z,6.30
2023-04-25T15:07:01.972Z,3.05
2023-04-25T15:09:29.704Z,6.13
2023-04-25T15:11:56.344Z,3.03
2023-04-25T15:14:22.753Z,1.90
2023-04-25T15:16:49.278Z,3.70
2023-04-25T15:19:16.205Z,3.58
2023-04-25T15:21:42.615Z,3.67
2023-04-25T15:24:09.028Z,2.50
2023-04-25T15:26:35.390Z,3.25
2023-04-25T15:29:02.061Z,4.43
2023-04-25T15:31:28.564Z,4.50
2023-04-25T15:33:54.962Z,5.20
2023-04-25T15:36:22.363Z,2.67
2023-04-25T15:38:48.742Z,3.22
2023-04-25T15:41:15.115Z,4.07
2023-04-25T15:43:41.508Z,3.15
2023-04-25T15:46:07.985Z,6.28
2023-04-25T15:48:34.450Z,5.93
2023-04-25T15:51:00.968Z,5.30
2023-04-25T15:53:27.444Z,8.85
2023-04-25T15:55:53.834Z,3.75
2023-04-25T15:58:20.227Z,2.67
2023-04-25T16:00:48.941Z,6.03
2023-04-25T16:03:15.593Z,3.20
2023-04-25T16:05:42.490Z,2.95
2023-04-25T16:08:08.981Z,5.32
2023-04-25T16:10:35.476Z,2.03
2023-04-25T16:13:01.905Z,3.90
2023-04-25T16:15:28.357Z,6.68
2023-04-25T16:17:54.797Z,1.83
2023-04-25T16:20:21.271Z,6.20
2023-04-25T16:22:47.846Z,6.60
2023-04-25T16:25:14.238Z,3.30
2023-04-25T16:27:41.141Z,3.20
2023-04-25T16:30:08.668Z,3.55
2023-04-25T16:32:35.290Z,7.07
2023-04-25T16:35:01.977Z,2.65
2023-04-25T16:37:28.377Z,6.78
2023-04-25T16:39:54.768Z,5.13
2023-04-25T16:42:21.150Z,2.67
2023-04-25T16:44:47.605Z,3.25
2023-04-25T16:47:17.972Z,8.27
2023-04-25T16:49:46.031Z,3.97
2023-04-25T16:52:12.567Z,3.95
2023-04-25T16:54:39.078Z,2.50
2023-04-25T16:57:06.886Z,3.83
2023-04-25T16:59:33.274Z,6.65
2023-04-25T17:01:59.728Z,2.75
2023-04-25T17:04:26.841Z,3.95
2023-04-25T17:06:53.460Z,2.20
2023-04-25T17:09:19.887Z,4.28
2023-04-25T17:11:46.548Z,3.50
2023-04-25T17:14:12.980Z,6.28
2023-04-25T17:16:39.533Z,7.60
2023-04-25T17:19:06.384Z,4.05
2023-04-25T17:21:33.001Z,2.58
2023-04-25T17:23:59.413Z,4.28
2023-04-25T17:26:26.462Z,5.22
2023-04-25T17:28:53.850Z,2.72
2023-04-25T17:31:21.257Z,3.58
2023-04-25T17:33:48.310Z,3.45
2023-04-25T17:36:14.974Z,5.15
2023-04-25T17:38:41.356Z,4.57
2023-04-25T17:41:10.297Z,4.80
2023-04-25T17:43:36.698Z,5.22
2023-04-25T17:46:03.104Z,3.60
2023-04-25T17:48:31.541Z,5.20
2023-04-25T17:50:58.562Z,8.55
2023-04-25T17:53:24.993Z,4.50
2023-04-25T17:55:51.379Z,5.88
2023-04-25T17:58:17.796Z,7.80
2023-04-25T18:00:44.357Z,3.20
2023-04-25T18:03:11.236Z,6.07
2023-04-25T18:05:37.763Z,7.30
2023-04-25T18:08:05.880Z,4.38
2023-04-25T18:10:33.869Z,4.82
2023-04-25T18:13:00.467Z,7.05
2023-04-25T18:15:26.986Z,7.18
2023-04-25T18:17:53.467Z,8.75
2023-04-25T18:20:20.558Z,6.10
2023-04-25T18:22:47.039Z,6.57
2023-04-25T18:25:13.844Z,8.98
2023-04-25T18:27:41.093Z,3.00
2023-04-25T18:30:09.424Z,2.35
2023-04-25T18:32:35.864Z,2.28
2023-04-25T18:35:02.649Z,4.45
2023-04-25T18:37:29.045Z,6.95
2023-04-25T18:39:55.507Z,5.82
2023-04-25T18:42:22.365Z,4.82
2023-04-25T18:44:48.728Z,6.10
2023-04-25T18:47:15.350Z,5.03
2023-04-25T18:49:41.936Z,5.30
2023-04-25T18:52:10.495Z,7.05
2023-04-25T18:54:37.244Z,6.68
2023-04-25T18:57:04.134Z,4.68
2023-04-25T18:59:30.486Z,7.53
2023-04-25T19:01:56.946Z,9.57
2023-04-25T19:04:23.446Z,12.35
2023-04-25T19:06:51.036Z,7.07
2023-04-25T19:09:18.224Z,6.45
2023-04-25T19:11:44.644Z,7.10
2023-04-25T19:14:11.681Z,7.93
2023-04-25T19:16:41.547Z,7.28
2023-04-25T19:19:09.110Z,9.93
2023-04-25T19:21:35.956Z,8.35
2023-04-25T19:24:04.626Z,10.27
2023-04-25T19:26:31.363Z,8.50
2023-04-25T19:29:08.782Z,6.03
2023-04-25T19:31:36.390Z,6.85
2023-04-25T19:34:06.898Z,5.22
2023-04-25T19:36:33.825Z,12.48
2023-04-25T19:39:04.270Z,4.53
2023-04-25T19:41:32.056Z,7.28
2023-04-25T19:44:00.770Z,4.63
2023-04-25T19:46:27.194Z,6.13
2023-04-25T19:48:53.652Z,2.97
2023-04-25T19:51:20.884Z,7.60
2023-04-25T19:53:47.251Z,5.85
2023-04-25T19:56:13.879Z,5.78
2023-04-25T19:58:40.222Z,4.72
2023-04-25T20:01:06.679Z,8.23
2023-04-25T20:03:33.283Z,8.55
2023-04-25T20:05:59.743Z,7.80
2023-04-25T20:08:26.248Z,5.10
2023-04-25T20:10:52.671Z,6.28
2023-04-25T20:13:19.037Z,7.72
2023-04-25T20:15:45.907Z,6.15
2023-04-25T20:18:12.391Z,6.65
2023-04-25T20:20:38.825Z,8.15
2023-04-25T20:23:05.216Z,6.70
2023-04-25T20:25:31.575Z,4.88
2023-04-25T20:27:57.974Z,6.20
2023-04-25T20:30:24.398Z,8.38
2023-04-25T20:32:50.830Z,7.22
2023-04-25T20:35:17.549Z,4.72
2023-04-25T20:37:44.024Z,3.42
2023-04-25T20:40:10.603Z,4.07
2023-04-25T20:42:38.039Z,4.20
2023-04-25T20:45:07.684Z,5.95
2023-04-25T20:47:34.721Z,7.10
2023-04-25T20:50:03.851Z,8.50
2023-04-25T20:52:31.862Z,4.15
2023-04-25T20:54:58.485Z,7.05
2023-04-25T20:57:24.995Z,7.95
2023-04-25T20:59:51.497Z,8.02
2023-04-25T21:02:17.927Z,7.55
2023-04-25T21:04:44.440Z,8.15
2023-04-25T21:07:15.217Z,4.35
2023-04-25T21:09:45.566Z,7.95
2023-04-25T21:12:12.133Z,5.63
2023-04-25T21:14:38.584Z,4.05
2023-04-25T21:17:05.400Z,6.15
2023-04-25T21:19:31.912Z,5.10
2023-04-25T21:21:58.395Z,5.68
2023-04-25T21:24:26.856Z,6.40
2023-04-25T21:26:53.352Z,8.02
2023-04-25T21:29:19.729Z,8.75
2023-04-25T21:31:46.678Z,6.85
2023-04-25T21:34:13.147Z,10.13
2023-04-25T21:36:41.129Z,8.52
2023-04-25T21:39:07.531Z,3.78
2023-04-25T21:41:33.989Z,5.25
2023-04-25T21:44:00.448Z,6.63
2023-04-25T21:46:26.882Z,7.00
2023-04-25T21:48:53.993Z,8.48
2023-04-25T21:51:20.773Z,6.47
2023-04-25T21:53:47.197Z,6.32
2023-04-25T21:56:13.640Z,9.18
2023-04-25T21:58:40.050Z,3.75
2023-04-25T22:01:06.457Z,4.05
2023-04-25T22:03:34.008Z,13.10
2023-04-25T22:06:01.131Z,5.88
2023-04-25T22:08:27.547Z,5.65
2023-04-25T22:10:55.108Z,5.63
2023-04-25T22:13:22.565Z,3.70
2023-04-25T22:15:48.993Z,3.13
2023-04-25T22:18:16.252Z,10.02
2023-04-25T22:20:44.160Z,7.40
2023-04-25T22:23:11.843Z,4.28
2023-04-25T22:25:38.260Z,7.18
2023-04-25T22:28:05.158Z,4.32
2023-04-25T22:30:32.456Z,5.82
2023-04-25T22:32:58.887Z,8.07
2023-04-25T22:35:25.415Z,4.95
2023-04-25T22:37:51.851Z,6.28
2023-04-25T22:40:18.507Z,3.28
2023-04-25T22:42:44.918Z,6.13
2023-04-25T22:45:12.123Z,7.22
2023-04-25T22:47:39.354Z,13.80
2023-04-25T22:50:08.449Z,6.18
2023-04-25T22:52:35.015Z,8.98
2023-04-25T22:55:02.826Z,6.05
2023-04-25T22:57:29.528Z,6.25
2023-04-25T22:59:56.253Z,8.18
2023-04-25T23:02:22.906Z,10.38
2023-04-25T23:04:50.365Z,7.47
2023-04-25T23:07:17.454Z,10.93
2023-04-25T23:09:45.031Z,5.60
2023-04-25T23:12:11.488Z,9.75
2023-04-25T23:14:38.444Z,9.90
2023-04-25T23:17:05.206Z,4.32
2023-04-25T23:19:31.680Z,10.90
2023-04-25T23:21:58.947Z,6.80
2023-04-25T23:24:25.834Z,7.82
2023-04-25T23:26:52.273Z,8.48
2023-04-25T23:29:18.728Z,9.13
2023-04-25T23:31:45.276Z,11.20
2023-04-25T23:34:11.629Z,7.57
2023-04-25T23:36:38.011Z,10.98
2023-04-25T23:39:05.315Z,9.63
2023-04-25T23:41:32.036Z,4.10
2023-04-25T23:43:58.832Z,11.43
2023-04-25T23:46:25.873Z,11.88
2023-04-25T23:48:52.593Z,11.30
2023-04-25T23:51:19.546Z,8.85
2023-04-25T23:53:45.936Z,10.68
2023-04-25T23:56:12.366Z,7.78
2023-04-25T23:58:38.762Z,4.13
